Time;durP1;ratioP1;P1;durP2;ratioP2;P2;SDS_P1;SDS_P2;PMS_P1;PMS_P2;Temp;Humidity;BMP_temperature;BMP_pressure;BME280_temperature;BME280_humidity;BME280_pressure;Samples;Min_cycle;Max_cycle;Signal;HPM_P1;HPM_P2
2022/07/06 00:02:24;;;;;;;;;;;19.50;70.30;;;;;;5023473;28;19920;-83
2022/07/06 00:04:49;;;;;;;;;;;19.50;70.40;;;;;;5023515;28;19913;-82
2022/07/06 00:07:15;;;;;;;;;;;19.30;71.10;;;;;;5023591;28;19953;-82
2022/07/06 00:09:41;;;;;;;;;;;19.40;71.10;;;;;;5025269;28;19916;-82
2022/07/06 00:12:07;;;;;;;;;;;19.30;71.70;;;;;;5024427;28;19917;-81
2022/07/06 00:14:33;;;;;;;;;;;19.20;72.00;;;;;;5023531;28;19913;-82
2022/07/06 00:16:58;;;;;;;;;;;19.30;72.00;;;;;;5020848;28;19927;-82
2022/07/06 00:19:24;;;;;;;;;;;19.20;72.00;;;;;;5006576;28;19912;-82
2022/07/06 00:21:49;;;;;;;;;;;19.30;72.20;;;;;;5024145;28;20436;-82
2022/07/06 00:24:17;;;;;;;;;;;19.20;72.50;;;;;;5024738;28;19913;-82
2022/07/06 00:26:43;;;;;;;;;;;19.10;72.70;;;;;;5024879;28;19919;-83
2022/07/06 00:29:09;;;;;;;;;;;19.00;72.90;;;;;;5025369;28;19913;-82
2022/07/06 00:31:35;;;;;;;;;;;19.00;73.80;;;;;;5024294;28;20764;-82
2022/07/06 00:34:00;;;;;;;;;;;19.00;73.20;;;;;;5023708;28;19960;-81
2022/07/06 00:36:26;;;;;;;;;;;18.90;73.80;;;;;;5023547;28;19927;-82
2022/07/06 00:38:51;;;;;;;;;;;18.90;74.10;;;;;;5023887;28;19913;-81
2022/07/06 00:41:17;;;;;;;;;;;19.00;74.20;;;;;;5022340;28;19956;-81
2022/07/06 00:43:51;;;;;;;;;;;18.90;74.70;;;;;;5023490;28;19981;-81
2022/07/06 00:46:17;;;;;;;;;;;18.80;75.10;;;;;;5023655;28;19918;-81
2022/07/06 00:48:43;;;;;;;;;;;18.80;75.40;;;;;;5023302;28;20306;-82
2022/07/06 00:51:08;;;;;;;;;;;18.70;76.00;;;;;;5024485;28;19910;-82
2022/07/06 00:53:34;;;;;;;;;;;18.60;75.80;;;;;;5023019;28;20694;-81
2022/07/06 00:56:00;;;;;;;;;;;18.50;76.80;;;;;;5023672;28;20020;-82
2022/07/06 00:58:26;;;;;;;;;;;18.50;78.20;;;;;;5023855;28;19913;-81
2022/07/06 01:00:51;;;;;;;;;;;18.50;77.80;;;;;;5024570;28;19920;-82
2022/07/06 01:03:17;;;;;;;;;;;18.50;78.60;;;;;;5023352;28;20052;-81
2022/07/06 01:05:43;;;;;;;;;;;18.40;78.70;;;;;;5022472;28;20019;-80
2022/07/06 01:08:09;;;;;;;;;;;18.30;79.70;;;;;;5005786;28;19916;-81
2022/07/06 01:10:34;;;;;;;;;;;18.30;80.90;;;;;;5024074;28;20431;-80
2022/07/06 01:13:00;;;;;;;;;;;18.30;81.60;;;;;;5023968;28;19944;-81
2022/07/06 01:15:25;;;;;;;;;;;18.30;81.20;;;;;;5024271;28;19913;-81
2022/07/06 01:17:51;;;;;;;;;;;18.30;81.40;;;;;;5022636;28;20695;-81
2022/07/06 01:20:18;;;;;;;;;;;18.20;82.30;;;;;;5023959;28;20476;-82
2022/07/06 01:22:44;;;;;;;;;;;18.10;83.40;;;;;;5004991;28;19948;-82
2022/07/06 01:25:10;;;;;;;;;;;18.00;84.50;;;;;;5022234;28;19913;-81
2022/07/06 01:27:39;;;;;;;;;;;18.00;85.50;;;;;;5023294;28;19920;-81
2022/07/06 01:30:06;;;;;;;;;;;18.00;84.00;;;;;;5023895;28;20385;-82
2022/07/06 01:32:33;;;;;;;;;;;18.10;84.10;;;;;;5005020;28;19968;-81
2022/07/06 01:34:59;;;;;;;;;;;18.00;85.60;;;;;;5022758;28;19919;-80
2022/07/06 01:37:25;;;;;;;;;;;18.00;85.40;;;;;;5022463;28;19927;-81
2022/07/06 01:39:50;;;;;;;;;;;18.00;85.40;;;;;;5025427;28;19939;-81
2022/07/06 01:42:17;;;;;;;;;;;17.90;86.80;;;;;;5023373;28;19951;-81
2022/07/06 01:44:43;;;;;;;;;;;17.80;88.10;;;;;;5004482;28;19913;-81
2022/07/06 01:47:09;;;;;;;;;;;17.80;88.70;;;;;;5022836;28;19917;-81
2022/07/06 01:49:34;;;;;;;;;;;17.80;89.40;;;;;;5022846;28;19913;-81
2022/07/06 01:52:00;;;;;;;;;;;17.70;90.20;;;;;;5021491;28;19917;-81
2022/07/06 01:54:25;;;;;;;;;;;17.60;90.40;;;;;;5023047;28;19913;-81
2022/07/06 01:56:51;;;;;;;;;;;17.70;90.30;;;;;;5022566;28;20097;-81
2022/07/06 01:59:16;;;;;;;;;;;17.70;90.60;;;;;;5022907;28;20401;-81
2022/07/06 02:01:42;;;;;;;;;;;17.70;90.40;;;;;;5009734;28;19921;-82
2022/07/06 02:04:07;;;;;;;;;;;17.80;89.80;;;;;;5023259;28;19913;-81
2022/07/06 02:06:33;;;;;;;;;;;17.70;90.50;;;;;;5020951;28;19913;-80
2022/07/06 02:08:58;;;;;;;;;;;17.70;90.60;;;;;;5022824;28;19920;-81
2022/07/06 02:11:24;;;;;;;;;;;17.50;91.10;;;;;;5022496;28;19914;-80
2022/07/06 02:13:49;;;;;;;;;;;17.50;91.50;;;;;;5022111;28;19920;-80
2022/07/06 02:16:15;;;;;;;;;;;17.60;91.10;;;;;;5022057;28;20580;-81
2022/07/06 02:18:41;;;;;;;;;;;17.50;91.00;;;;;;5022663;28;20409;-81
2022/07/06 02:21:06;;;;;;;;;;;17.50;91.30;;;;;;5022089;28;20357;-81
2022/07/06 02:23:32;;;;;;;;;;;17.50;91.60;;;;;;5022282;28;19912;-81
2022/07/06 02:25:57;;;;;;;;;;;17.60;91.10;;;;;;5021491;28;19920;-81
2022/07/06 02:28:23;;;;;;;;;;;17.50;91.30;;;;;;5004124;28;19917;-81
2022/07/06 02:30:48;;;;;;;;;;;17.40;91.70;;;;;;5022867;28;19970;-81
2022/07/06 02:33:14;;;;;;;;;;;17.40;91.80;;;;;;5021912;28;19927;-81
2022/07/06 02:35:42;;;;;;;;;;;17.30;92.80;;;;;;5022957;28;20008;-81
2022/07/06 02:38:11;;;;;;;;;;;17.30;92.50;;;;;;5003878;28;19939;-81
2022/07/06 02:40:36;;;;;;;;;;;17.30;92.80;;;;;;5022352;28;20230;-82
2022/07/06 02:43:02;;;;;;;;;;;17.20;93.00;;;;;;5022310;28;20526;-82
2022/07/06 02:45:27;;;;;;;;;;;17.20;93.00;;;;;;5026646;28;19988;-81
2022/07/06 02:47:55;;;;;;;;;;;17.20;93.50;;;;;;5026611;28;19971;-81
2022/07/06 02:50:20;;;;;;;;;;;17.10;93.50;;;;;;5025727;28;19913;-81
2022/07/06 02:52:46;;;;;;;;;;;17.00;93.90;;;;;;5025247;28;20439;-81
2022/07/06 02:55:11;;;;;;;;;;;17.10;94.50;;;;;;5025762;28;20016;-82
2022/07/06 02:57:37;;;;;;;;;;;17.10;94.30;;;;;;5025748;28;19927;-81
2022/07/06 03:00:03;;;;;;;;;;;17.10;94.30;;;;;;5025747;28;19913;-82
2022/07/06 03:02:29;;;;;;;;;;;17.10;94.20;;;;;;5026306;28;19909;-81
2022/07/06 03:04:56;;;;;;;;;;;17.10;94.00;;;;;;5025178;28;20267;-81
2022/07/06 03:07:22;;;;;;;;;;;17.10;94.10;;;;;;5026456;28;19928;-81
2022/07/06 03:09:47;;;;;;;;;;;17.10;94.50;;;;;;5026053;28;20698;-81
2022/07/06 03:12:13;;;;;;;;;;;17.10;94.30;;;;;;5026239;28;19924;-81
2022/07/06 03:14:39;;;;;;;;;;;17.10;94.40;;;;;;5024716;28;19928;-81
2022/07/06 03:17:05;;;;;;;;;;;17.00;94.60;;;;;;5025594;28;19921;-81
2022/07/06 03:19:30;;;;;;;;;;;17.00;95.00;;;;;;5025111;28;19915;-80
2022/07/06 03:21:56;;;;;;;;;;;16.90;95.30;;;;;;5026777;28;20429;-81
2022/07/06 03:24:21;;;;;;;;;;;16.80;95.80;;;;;;5025500;28;19955;-81
2022/07/06 03:26:47;;;;;;;;;;;16.80;95.80;;;;;;5008077;28;19963;-81
2022/07/06 03:29:12;;;;;;;;;;;16.80;96.40;;;;;;5025585;28;19971;-83
2022/07/06 03:31:38;;;;;;;;;;;16.70;96.60;;;;;;5024795;28;20015;-82
2022/07/06 03:34:03;;;;;;;;;;;16.70;96.70;;;;;;5024013;28;20687;-81
2022/07/06 03:36:29;;;;;;;;;;;16.70;97.30;;;;;;5025255;28;20872;-81
2022/07/06 03:38:54;;;;;;;;;;;16.60;97.50;;;;;;5026539;28;20387;-81
2022/07/06 03:41:20;;;;;;;;;;;16.60;97.90;;;;;;5025919;28;20488;-81
2022/07/06 03:43:45;;;;;;;;;;;16.60;98.10;;;;;;5024913;28;20003;-81
2022/07/06 03:46:11;;;;;;;;;;;16.50;98.40;;;;;;5025597;28;19912;-81
2022/07/06 03:48:36;;;;;;;;;;;16.50;98.60;;;;;;5024083;28;19975;-81
2022/07/06 03:51:02;;;;;;;;;;;16.40;99.20;;;;;;5023921;28;20000;-81
2022/07/06 03:53:27;;;;;;;;;;;16.40;99.20;;;;;;5024167;28;19955;-81
2022/07/06 03:58:37;;;;;;;;;;;16.40;99.20;;;;;;5024816;28;20000;-85
2022/07/06 04:01:03;;;;;;;;;;;16.80;99.90;;;;;;5023795;28;19996;-84
2022/07/06 04:03:28;;;;;;;;;;;16.80;99.90;;;;;;5025049;28;20031;-85
2022/07/06 04:05:54;;;;;;;;;;;16.80;99.70;;;;;;5025272;28;19924;-85
2022/07/06 04:08:19;;;;;;;;;;;16.90;99.40;;;;;;5023898;28;19913;-84
2022/07/06 04:10:45;;;;;;;;;;;16.90;98.00;;;;;;5023815;28;19920;-85
2022/07/06 04:13:11;;;;;;;;;;;17.10;97.80;;;;;;5023569;28;19913;-85
2022/07/06 04:15:36;;;;;;;;;;;17.00;98.20;;;;;;5025078;28;20040;-85
2022/07/06 04:18:02;;;;;;;;;;;16.90;98.50;;;;;;5023868;28;19966;-86
2022/07/06 04:20:28;;;;;;;;;;;16.70;98.90;;;;;;5007362;28;20019;-86
2022/07/06 04:22:53;;;;;;;;;;;16.70;99.10;;;;;;5026315;28;19913;-87
2022/07/06 04:25:19;;;;;;;;;;;17.00;98.90;;;;;;5008125;28;20400;-85
2022/07/06 04:27:44;;;;;;;;;;;16.90;98.80;;;;;;5025750;28;19920;-85
2022/07/06 04:30:10;;;;;;;;;;;17.30;99.00;;;;;;5026215;28;19909;-84
2022/07/06 04:32:36;;;;;;;;;;;17.10;97.70;;;;;;5024454;28;19924;-84
2022/07/06 04:35:02;;;;;;;;;;;17.60;95.50;;;;;;5025295;28;20686;-83
2022/07/06 04:37:28;;;;;;;;;;;17.90;93.90;;;;;;5007468;28;20047;-87
2022/07/06 04:39:53;;;;;;;;;;;18.40;92.80;;;;;;5025408;28;20078;-87
2022/07/06 04:42:19;;;;;;;;;;;18.50;90.60;;;;;;5025893;28;20086;-87
2022/07/06 04:44:45;;;;;;;;;;;18.50;90.60;;;;;;5025476;28;20490;-87
2022/07/06 04:47:11;;;;;;;;;;;19.00;88.20;;;;;;5024448;28;19916;-85
2022/07/06 04:49:37;;;;;;;;;;;19.50;85.20;;;;;;5023719;28;19913;-86
2022/07/06 04:52:02;;;;;;;;;;;19.90;82.60;;;;;;5027737;28;20382;-87
2022/07/06 04:54:28;;;;;;;;;;;20.00;79.80;;;;;;5023275;28;19913;-87
2022/07/06 04:56:53;;;;;;;;;;;20.20;79.80;;;;;;5024746;28;19924;-86
2022/07/06 04:59:19;;;;;;;;;;;20.60;78.70;;;;;;5025426;28;20546;-86
2022/07/06 05:01:44;;;;;;;;;;;20.80;76.70;;;;;;5024346;28;20442;-87
2022/07/06 05:04:10;;;;;;;;;;;20.70;77.10;;;;;;5002020;28;19932;-88
2022/07/06 05:06:35;;;;;;;;;;;21.00;75.30;;;;;;5025129;28;19951;-87
2022/07/06 05:09:01;;;;;;;;;;;21.10;74.70;;;;;;5025008;28;20028;-86
2022/07/06 05:11:27;;;;;;;;;;;21.60;72.40;;;;;;5024641;28;20271;-86
2022/07/06 05:13:53;;;;;;;;;;;21.90;71.40;;;;;;5023542;28;19913;-86
2022/07/06 05:16:18;;;;;;;;;;;22.60;68.90;;;;;;5023983;28;19982;-86
2022/07/06 05:18:44;;;;;;;;;;;22.40;69.20;;;;;;5024736;28;19909;-87
2022/07/06 05:21:09;;;;;;;;;;;22.90;68.10;;;;;;5024089;28;20003;-86
2022/07/06 05:23:35;;;;;;;;;;;23.10;65.70;;;;;;5024080;28;20438;-86
2022/07/06 05:26:00;;;;;;;;;;;23.30;65.80;;;;;;5023986;28;19960;-86
2022/07/06 05:28:26;;;;;;;;;;;23.10;65.20;;;;;;5025175;28;20732;-86
2022/07/06 05:30:52;;;;;;;;;;;23.70;64.20;;;;;;5019850;28;19913;-87
2022/07/06 05:33:18;;;;;;;;;;;24.10;63.90;;;;;;5024148;28;19917;-87
2022/07/06 05:35:43;;;;;;;;;;;24.00;63.40;;;;;;5023456;28;20341;-86
2022/07/06 05:38:09;;;;;;;;;;;24.20;63.70;;;;;;5005559;28;19920;-87
2022/07/06 05:40:34;;;;;;;;;;;24.20;62.50;;;;;;5024374;28;19913;-86
2022/07/06 05:43:00;;;;;;;;;;;24.40;62.00;;;;;;5023475;28;20286;-86
2022/07/06 05:45:25;;;;;;;;;;;24.50;60.60;;;;;;5022039;28;19927;-86
2022/07/06 05:50:48;;;;;;;;;;;25.30;59.80;;;;;;4942794;29;20348;-86
2022/07/06 05:53:14;;;;;;;;;;;24.90;60.70;;;;;;4933045;28;19910;-87
2022/07/06 05:55:39;;;;;;;;;;;25.50;59.40;;;;;;4940662;29;20054;-86
2022/07/06 05:58:05;;;;;;;;;;;25.80;58.10;;;;;;4934705;28;19966;-84
2022/07/06 06:00:30;;;;;;;;;;;26.10;58.80;;;;;;4933972;28;19914;-84
2022/07/06 06:02:57;;;;;;;;;;;26.00;57.20;;;;;;4930795;28;20064;-82
2022/07/06 06:05:23;;;;;;;;;;;26.70;56.00;;;;;;4930982;28;20005;-81
2022/07/06 06:07:50;;;;;;;;;;;26.80;55.60;;;;;;4933124;28;21262;-81
2022/07/06 06:10:17;;;;;;;;;;;27.40;54.80;;;;;;4937798;28;19921;-83
2022/07/06 06:12:43;;;;;;;;;;;27.60;54.50;;;;;;4934542;29;19950;-83
2022/07/06 06:15:09;;;;;;;;;;;27.90;54.00;;;;;;4940498;29;19910;-82
2022/07/06 06:17:35;;;;;;;;;;;28.50;52.60;;;;;;4932549;28;19955;-82
2022/07/06 06:20:01;;;;;;;;;;;28.30;53.20;;;;;;4931375;28;20044;-83
2022/07/06 06:22:26;;;;;;;;;;;28.20;54.30;;;;;;4938907;29;19918;-81
2022/07/06 06:24:52;;;;;;;;;;;28.20;53.80;;;;;;4934636;29;20092;-80
2022/07/06 06:27:17;;;;;;;;;;;28.00;53.30;;;;;;4999749;28;20386;-84
2022/07/06 06:29:44;;;;;;;;;;;28.40;53.60;;;;;;5014865;28;19909;-82
2022/07/06 06:32:10;;;;;;;;;;;29.60;52.30;;;;;;5015983;28;19925;-84
2022/07/06 06:34:35;;;;;;;;;;;29.50;52.20;;;;;;5017022;28;19959;-83
2022/07/06 06:37:01;;;;;;;;;;;29.30;51.10;;;;;;5012016;28;20309;-82
2022/07/06 06:39:27;;;;;;;;;;;30.50;53.00;;;;;;5014053;28;19925;-83
2022/07/06 06:41:52;;;;;;;;;;;30.50;53.50;;;;;;5020877;28;19916;-84
2022/07/06 06:44:18;;;;;;;;;;;30.60;51.00;;;;;;5022440;28;20729;-85
2022/07/06 06:46:44;;;;;;;;;;;30.60;51.40;;;;;;5017159;28;19978;-85
2022/07/06 06:49:09;;;;;;;;;;;31.00;50.30;;;;;;5016510;28;19917;-84
2022/07/06 06:51:35;;;;;;;;;;;31.60;49.50;;;;;;5009889;28;20007;-84
2022/07/06 06:54:00;;;;;;;;;;;30.90;48.60;;;;;;5011756;28;20747;-84
2022/07/06 06:56:26;;;;;;;;;;;31.70;48.20;;;;;;5008543;28;19913;-84
2022/07/06 06:58:52;;;;;;;;;;;31.40;48.70;;;;;;5009622;28;19916;-84
2022/07/06 07:01:17;;;;;;;;;;;31.50;47.90;;;;;;5014323;28;19919;-84
2022/07/06 07:03:43;;;;;;;;;;;31.00;47.10;;;;;;5017962;28;19912;-84
2022/07/06 07:06:08;;;;;;;;;;;31.70;47.60;;;;;;5000927;28;19920;-85
2022/07/06 07:08:34;;;;;;;;;;;32.30;47.60;;;;;;5012741;28;20055;-84
2022/07/06 07:10:59;;;;;;;;;;;31.90;48.10;;;;;;5016972;28;19936;-83
2022/07/06 07:13:25;;;;;;;;;;;31.80;48.70;;;;;;5020084;28;19974;-84
2022/07/06 07:15:50;;;;;;;;;;;31.80;47.70;;;;;;5021095;28;19968;-84
2022/07/06 07:18:16;;;;;;;;;;;31.20;47.90;;;;;;5016329;28;19924;-83
2022/07/06 07:20:42;;;;;;;;;;;31.30;47.00;;;;;;5005598;28;20305;-84
2022/07/06 07:23:07;;;;;;;;;;;31.80;46.60;;;;;;5022310;28;19916;-84
2022/07/06 07:25:33;;;;;;;;;;;31.50;45.40;;;;;;5004456;28;19912;-84
2022/07/06 07:27:58;;;;;;;;;;;33.20;48.30;;;;;;5020784;28;19917;-84
2022/07/06 07:30:24;;;;;;;;;;;32.60;46.60;;;;;;5004347;28;19959;-84
2022/07/06 07:32:49;;;;;;;;;;;33.00;45.70;;;;;;5025622;28;20404;-83
2022/07/06 07:35:15;;;;;;;;;;;33.20;45.80;;;;;;5025968;28;19909;-84
2022/07/06 07:37:40;;;;;;;;;;;32.70;44.70;;;;;;5006354;28;19917;-84
2022/07/06 07:40:06;;;;;;;;;;;32.60;47.40;;;;;;5006721;28;20393;-83
2022/07/06 07:42:32;;;;;;;;;;;33.40;45.00;;;;;;5025452;28;19913;-83
2022/07/06 07:44:58;;;;;;;;;;;33.50;46.00;;;;;;5024052;28;20462;-83
2022/07/06 07:47:23;;;;;;;;;;;33.30;46.20;;;;;;5025735;28;19909;-83
2022/07/06 07:49:49;;;;;;;;;;;34.50;45.30;;;;;;5023390;28;19912;-83
2022/07/06 07:52:15;;;;;;;;;;;33.30;44.60;;;;;;5021248;28;19913;-83
2022/07/06 07:54:40;;;;;;;;;;;34.40;46.50;;;;;;5018885;28;20324;-83
2022/07/06 07:57:06;;;;;;;;;;;35.20;42.70;;;;;;5020960;28;19959;-83
2022/07/06 07:59:32;;;;;;;;;;;33.80;43.40;;;;;;5014756;28;20024;-82
2022/07/06 08:01:57;;;;;;;;;;;34.30;44.20;;;;;;5019014;28;19924;-84
2022/07/06 08:04:23;;;;;;;;;;;33.60;43.60;;;;;;5024446;28;19913;-83
2022/07/06 08:06:48;;;;;;;;;;;34.40;44.70;;;;;;5029666;28;19944;-82
2022/07/06 08:09:15;;;;;;;;;;;33.70;44.40;;;;;;5024521;28;19917;-83
2022/07/06 08:11:41;;;;;;;;;;;34.60;44.00;;;;;;5025048;28;19995;-82
2022/07/06 08:14:06;;;;;;;;;;;34.60;43.00;;;;;;5018534;28;20036;-83
2022/07/06 08:16:32;;;;;;;;;;;35.10;43.60;;;;;;5023224;28;19936;-83
2022/07/06 08:18:57;;;;;;;;;;;34.80;42.90;;;;;;5019210;28;19913;-83
2022/07/06 08:21:23;;;;;;;;;;;34.90;42.50;;;;;;5015882;28;19919;-82
2022/07/06 08:23:49;;;;;;;;;;;34.00;45.60;;;;;;5004734;28;19920;-83
2022/07/06 08:26:14;;;;;;;;;;;35.40;42.70;;;;;;5024628;28;19913;-83
2022/07/06 08:28:40;;;;;;;;;;;36.40;41.90;;;;;;5021770;28;19917;-83
2022/07/06 08:31:05;;;;;;;;;;;36.00;42.50;;;;;;4995357;28;19921;-84
2022/07/06 08:33:31;;;;;;;;;;;35.80;42.40;;;;;;5012175;28;20479;-83
2022/07/06 08:35:57;;;;;;;;;;;35.50;42.20;;;;;;5014053;28;19917;-83
2022/07/06 08:38:22;;;;;;;;;;;36.50;43.20;;;;;;5014885;28;19936;-82
2022/07/06 08:40:48;;;;;;;;;;;35.70;39.60;;;;;;5017022;28;20460;-83
2022/07/06 08:43:14;;;;;;;;;;;36.00;41.00;;;;;;5004654;28;20676;-82
2022/07/06 08:45:41;;;;;;;;;;;36.20;43.40;;;;;;5010668;28;19920;-83
2022/07/06 08:48:06;;;;;;;;;;;36.40;40.90;;;;;;5014705;28;19920;-83
2022/07/06 08:50:33;;;;;;;;;;;35.80;40.20;;;;;;5014338;28;20308;-83
2022/07/06 08:52:59;;;;;;;;;;;37.80;41.20;;;;;;5016460;28;19951;-81
2022/07/06 08:55:25;;;;;;;;;;;36.90;40.20;;;;;;5002805;28;19926;-82
2022/07/06 08:57:51;;;;;;;;;;;36.30;40.00;;;;;;5021433;28;19925;-81
2022/07/06 09:00:16;;;;;;;;;;;36.60;40.80;;;;;;5004103;28;19916;-82
2022/07/06 09:02:42;;;;;;;;;;;37.20;40.60;;;;;;5022695;28;20385;-83
2022/07/06 09:05:08;;;;;;;;;;;38.20;39.40;;;;;;5028272;28;20126;-82
2022/07/06 09:07:34;;;;;;;;;;;36.70;41.00;;;;;;5021695;28;20371;-82
2022/07/06 09:10:00;;;;;;;;;;;38.60;42.90;;;;;;5020787;28;19917;-82
2022/07/06 09:12:29;;;;;;;;;;;37.50;40.00;;;;;;5012813;28;19913;-81
2022/07/06 09:14:56;;;;;;;;;;;37.70;41.10;;;;;;5009445;28;19909;-83
2022/07/06 09:17:24;;;;;;;;;;;39.50;40.70;;;;;;5022203;28;20309;-82
2022/07/06 09:19:50;;;;;;;;;;;39.30;38.30;;;;;;5018353;28;19967;-83
2022/07/06 09:22:30;;;;;;;;;;;39.00;38.00;;;;;;5013316;28;19913;-82
2022/07/06 09:25:06;;;;;;;;;;;39.20;39.10;;;;;;5007987;28;20000;-83
2022/07/06 09:27:31;;;;;;;;;;;38.10;39.30;;;;;;4992437;28;20613;-82
2022/07/06 09:30:03;;;;;;;;;;;38.90;37.90;;;;;;5005734;28;19909;-81
2022/07/06 09:32:29;;;;;;;;;;;38.60;39.20;;;;;;5013027;28;19931;-82
2022/07/06 09:34:55;;;;;;;;;;;37.70;37.40;;;;;;5013321;28;19912;-82
2022/07/06 09:37:21;;;;;;;;;;;38.50;38.70;;;;;;5023685;28;20396;-82
2022/07/06 09:39:47;;;;;;;;;;;37.90;39.50;;;;;;5021115;28;20334;-79
2022/07/06 09:42:12;;;;;;;;;;;37.10;38.40;;;;;;5019044;28;19973;-80
2022/07/06 09:44:39;;;;;;;;;;;37.00;39.70;;;;;;5022571;28;19913;-82
2022/07/06 09:47:06;;;;;;;;;;;36.40;37.40;;;;;;5022079;28;19913;-82
2022/07/06 09:49:32;;;;;;;;;;;36.40;38.40;;;;;;5021178;28;20002;-82
2022/07/06 09:51:59;;;;;;;;;;;35.90;39.70;;;;;;5022121;28;20456;-83
2022/07/06 09:54:25;;;;;;;;;;;36.10;38.10;;;;;;5022120;28;20003;-82
2022/07/06 09:56:51;;;;;;;;;;;35.10;37.60;;;;;;5022535;28;19960;-81
2022/07/06 09:59:17;;;;;;;;;;;35.10;40.10;;;;;;5021116;28;19917;-81
2022/07/06 10:01:43;;;;;;;;;;;35.90;38.50;;;;;;5017481;28;20377;-82
2022/07/06 10:04:12;;;;;;;;;;;36.40;37.60;;;;;;5022303;28;19920;-81
2022/07/06 10:06:38;;;;;;;;;;;37.50;37.80;;;;;;5022309;28;19940;-82
2022/07/06 10:09:08;;;;;;;;;;;37.20;37.30;;;;;;5019347;28;20010;-82
2022/07/06 10:11:37;;;;;;;;;;;36.50;36.20;;;;;;5022149;28;19913;-82
2022/07/06 10:14:04;;;;;;;;;;;36.20;36.00;;;;;;5021689;28;19913;-81
2022/07/06 10:16:30;;;;;;;;;;;35.40;35.80;;;;;;5004694;28;19920;-82
2022/07/06 10:18:56;;;;;;;;;;;36.90;36.00;;;;;;5020408;28;19995;-82
2022/07/06 10:21:22;;;;;;;;;;;36.80;36.40;;;;;;5026876;28;19908;-81
2022/07/06 10:23:48;;;;;;;;;;;36.10;36.50;;;;;;5023003;28;19952;-82
2022/07/06 10:26:14;;;;;;;;;;;35.50;38.00;;;;;;5022885;28;19924;-82
2022/07/06 10:28:41;;;;;;;;;;;35.80;39.20;;;;;;5020877;28;19917;-80
2022/07/06 10:31:07;;;;;;;;;;;35.30;36.80;;;;;;5022068;28;19984;-80
2022/07/06 10:33:33;;;;;;;;;;;35.60;38.50;;;;;;5021744;28;20007;-81
2022/07/06 10:35:58;;;;;;;;;;;35.20;36.90;;;;;;5022421;28;20772;-81
2022/07/06 10:38:34;;;;;;;;;;;34.60;37.70;;;;;;5020407;28;19921;-81
2022/07/06 10:41:09;;;;;;;;;;;34.80;37.40;;;;;;5020758;28;20278;-80
2022/07/06 10:43:42;;;;;;;;;;;34.10;37.30;;;;;;5020920;28;19977;-81
2022/07/06 10:46:15;;;;;;;;;;;32.00;38.60;;;;;;5020804;28;20011;-82
2022/07/06 10:48:41;;;;;;;;;;;31.70;40.40;;;;;;5019557;28;19913;-80
2022/07/06 10:51:08;;;;;;;;;;;30.40;40.80;;;;;;5020241;28;20577;-81
2022/07/06 10:53:35;;;;;;;;;;;30.30;43.60;;;;;;5022298;28;19913;-81
2022/07/06 10:56:02;;;;;;;;;;;30.60;44.20;;;;;;5022304;28;19925;-81
2022/07/06 10:58:48;;;;;;;;;;;30.30;41.60;;;;;;5021018;28;20638;-80
2022/07/06 11:01:14;;;;;;;;;;;30.00;42.60;;;;;;5021963;28;20062;-81
2022/07/06 11:03:47;;;;;;;;;;;29.60;44.40;;;;;;5021818;28;19942;-82
2022/07/06 11:06:23;;;;;;;;;;;30.00;44.60;;;;;;5022412;28;19913;-81
2022/07/06 11:08:55;;;;;;;;;;;29.70;42.60;;;;;;5024676;28;19913;-82
2022/07/06 11:11:37;;;;;;;;;;;29.60;44.20;;;;;;5024828;28;20359;-81
2022/07/06 11:14:16;;;;;;;;;;;29.70;45.50;;;;;;5025953;28;19924;-81
2022/07/06 11:16:48;;;;;;;;;;;29.80;44.30;;;;;;5008688;28;20302;-81
2022/07/06 11:19:21;;;;;;;;;;;29.50;43.60;;;;;;5021602;28;19917;-81
2022/07/06 11:21:48;;;;;;;;;;;29.10;45.20;;;;;;5025898;28;19909;-81
2022/07/06 11:24:21;;;;;;;;;;;29.50;45.30;;;;;;5026769;28;19928;-82
2022/07/06 11:26:48;;;;;;;;;;;29.50;46.40;;;;;;5026310;28;19909;-81
2022/07/06 11:29:14;;;;;;;;;;;29.30;44.10;;;;;;5024284;28;19917;-81
2022/07/06 11:31:41;;;;;;;;;;;29.30;45.50;;;;;;5025412;28;19920;-82
2022/07/06 11:34:07;;;;;;;;;;;29.60;45.50;;;;;;5025843;28;19995;-82
2022/07/06 11:36:33;;;;;;;;;;;29.20;43.90;;;;;;5025118;28;19927;-81
2022/07/06 11:38:59;;;;;;;;;;;28.70;45.90;;;;;;5023145;28;20377;-81
2022/07/06 11:41:25;;;;;;;;;;;28.80;45.40;;;;;;5024564;28;19913;-81
2022/07/06 11:43:51;;;;;;;;;;;28.40;45.50;;;;;;5025868;28;19998;-80
2022/07/06 11:46:20;;;;;;;;;;;28.60;48.30;;;;;;5024873;28;19909;-81
2022/07/06 11:48:47;;;;;;;;;;;28.50;44.30;;;;;;5024274;28;20127;-80
2022/07/06 11:51:13;;;;;;;;;;;28.40;45.00;;;;;;5024293;28;19974;-81
2022/07/06 11:53:42;;;;;;;;;;;28.30;43.90;;;;;;5025111;28;19987;-81
2022/07/06 11:56:08;;;;;;;;;;;28.40;45.00;;;;;;5026120;28;19913;-81
2022/07/06 11:58:34;;;;;;;;;;;28.50;45.60;;;;;;5023653;28;20392;-81
2022/07/06 12:01:10;;;;;;;;;;;28.90;49.10;;;;;;5023553;28;20034;-80
2022/07/06 12:03:36;;;;;;;;;;;28.40;48.30;;;;;;5025970;28;19909;-81
2022/07/06 12:06:02;;;;;;;;;;;28.40;47.40;;;;;;5025214;28;19913;-80
2022/07/06 12:08:28;;;;;;;;;;;28.00;48.50;;;;;;5024225;28;19932;-81
2022/07/06 12:10:54;;;;;;;;;;;28.20;48.20;;;;;;5024548;28;19912;-81
2022/07/06 12:13:19;;;;;;;;;;;27.90;46.90;;;;;;5024715;28;19916;-80
2022/07/06 12:15:45;;;;;;;;;;;28.10;49.60;;;;;;5023914;28;20350;-81
2022/07/06 12:18:10;;;;;;;;;;;28.30;48.60;;;;;;5005141;28;20032;-80
2022/07/06 12:20:36;;;;;;;;;;;27.70;46.70;;;;;;5024202;28;20522;-81
2022/07/06 12:23:05;;;;;;;;;;;27.80;48.70;;;;;;5006268;28;19945;-80
2022/07/06 12:25:31;;;;;;;;;;;27.60;46.70;;;;;;5026224;28;20383;-80
2022/07/06 12:27:57;;;;;;;;;;;27.60;48.10;;;;;;5023715;28;19913;-80
2022/07/06 12:30:22;;;;;;;;;;;27.40;51.50;;;;;;5021869;28;20153;-81
2022/07/06 12:33:08;;;;;;;;;;;27.40;47.90;;;;;;5023259;28;20015;-81
2022/07/06 12:35:33;;;;;;;;;;;27.40;48.40;;;;;;5022360;28;20373;-79
2022/07/06 12:38:00;;;;;;;;;;;27.60;51.60;;;;;;5023634;28;19963;-80
2022/07/06 12:40:29;;;;;;;;;;;27.40;47.90;;;;;;5023396;28;20392;-81
2022/07/06 12:42:55;;;;;;;;;;;27.40;49.00;;;;;;5023455;28;20467;-81
2022/07/06 12:45:25;;;;;;;;;;;27.50;48.90;;;;;;5024196;28;19913;-81
2022/07/06 12:48:01;;;;;;;;;;;27.60;50.60;;;;;;5023473;28;19917;-82
2022/07/06 12:50:31;;;;;;;;;;;27.40;48.80;;;;;;5022475;28;20193;-81
2022/07/06 12:52:57;;;;;;;;;;;27.60;47.60;;;;;;5023723;28;19913;-81
2022/07/06 12:55:25;;;;;;;;;;;27.60;49.20;;;;;;5021498;28;19920;-81
2022/07/06 12:57:51;;;;;;;;;;;27.60;49.30;;;;;;5022638;28;19964;-81
2022/07/06 13:00:17;;;;;;;;;;;27.50;47.60;;;;;;5022233;28;19952;-81
2022/07/06 13:02:44;;;;;;;;;;;27.70;49.80;;;;;;5024284;28;19920;-81
2022/07/06 13:05:11;;;;;;;;;;;27.70;49.50;;;;;;5023994;28;19916;-81
2022/07/06 13:07:38;;;;;;;;;;;27.50;50.40;;;;;;5023242;28;19913;-81
2022/07/06 13:10:04;;;;;;;;;;;27.30;53.10;;;;;;5021567;28;20019;-81
2022/07/06 13:12:30;;;;;;;;;;;27.10;46.90;;;;;;5023977;28;19991;-81
2022/07/06 13:14:56;;;;;;;;;;;27.30;49.20;;;;;;5023176;28;19917;-81
2022/07/06 13:17:22;;;;;;;;;;;27.30;50.10;;;;;;5005698;28;20419;-81
2022/07/06 13:19:47;;;;;;;;;;;27.30;48.00;;;;;;5021916;28;19913;-80
2022/07/06 13:22:13;;;;;;;;;;;27.40;50.90;;;;;;5005757;28;19924;-80
2022/07/06 13:24:39;;;;;;;;;;;27.40;49.00;;;;;;5005323;28;19963;-81
2022/07/06 13:27:05;;;;;;;;;;;27.30;49.00;;;;;;5023697;28;20612;-80
2022/07/06 13:29:30;;;;;;;;;;;27.40;49.80;;;;;;5021435;28;20414;-80
2022/07/06 13:31:56;;;;;;;;;;;27.40;51.20;;;;;;5022930;28;19953;-81
2022/07/06 13:34:22;;;;;;;;;;;27.40;48.90;;;;;;5022071;28;19944;-80
2022/07/06 13:36:48;;;;;;;;;;;27.20;49.00;;;;;;5022145;28;19920;-81
2022/07/06 13:39:13;;;;;;;;;;;27.30;51.10;;;;;;5020399;28;19924;-81
2022/07/06 13:41:39;;;;;;;;;;;27.40;51.60;;;;;;5022920;28;19913;-81
2022/07/06 13:44:05;;;;;;;;;;;27.40;49.90;;;;;;5022829;28;20020;-81
2022/07/06 13:46:31;;;;;;;;;;;27.30;49.70;;;;;;5023594;28;19913;-81
2022/07/06 13:48:57;;;;;;;;;;;27.30;50.30;;;;;;5021640;28;19919;-82
2022/07/06 13:51:23;;;;;;;;;;;27.40;51.50;;;;;;5022613;28;19994;-81
2022/07/06 13:53:49;;;;;;;;;;;27.40;50.90;;;;;;5023639;28;19909;-82
2022/07/06 13:56:15;;;;;;;;;;;27.30;53.30;;;;;;5023048;28;20271;-82
2022/07/06 13:58:41;;;;;;;;;;;27.40;52.00;;;;;;5021411;28;19959;-81
2022/07/06 14:01:06;;;;;;;;;;;27.20;50.80;;;;;;5022836;28;19948;-82
2022/07/06 14:03:32;;;;;;;;;;;27.20;52.50;;;;;;5022980;28;20665;-82
2022/07/06 14:05:58;;;;;;;;;;;27.10;49.80;;;;;;5004421;28;20301;-81
2022/07/06 14:08:24;;;;;;;;;;;27.20;50.70;;;;;;5021861;28;19920;-80
2022/07/06 14:10:50;;;;;;;;;;;27.10;53.00;;;;;;5022025;28;20774;-81
2022/07/06 14:13:15;;;;;;;;;;;27.10;49.20;;;;;;5022761;28;19909;-81
2022/07/06 14:15:41;;;;;;;;;;;27.10;49.60;;;;;;5022969;28;20671;-82
2022/07/06 14:18:07;;;;;;;;;;;27.00;48.50;;;;;;5022099;28;20039;-81